USCGC Healy — NEPP — position and weather

sailwx.info

Track history (hours):
 
Tides and Currents Weather Stations Pressure Air Temp Water Temp Dewpoint Dewpoint Depression Visibility Wind Speed Wind Dir Waves Ship Positions

Oceanographic research ship USCGC Healy (USA)

Detailed information on ship capabilities available from University of Delaware's Ocean Information Center and ARCUS's ALIAS (Arctic Logistics Information and Support) project.

Last reported at 2018-Jun-22 18:30 UTC. Time now 2018-Jun-22 18:36 UTC.
Position N 34°56' W 121°41'.

Type: Military. MMSI: 303902000.

Date/timePositionNaut miles runAvg speedWind from/ knotsBaromVisibWave heightAir tempDewpointWater temp
2018-Jun-22 18:30N 34°56' W 121°41'612.7
2018-Jun-22 18:00N 35°01' W 121°45'3167.1
2018-Jun-22 18:00N 35°00' W 121°48'713.9 330 / 151015.4 15.212.213.2
2018-Jun-22 17:30N 35°07' W 121°49'713.0
2018-Jun-22 17:00N 35°12' W 121°54'014.5
2018-Jun-22 17:00N 35°12' W 121°54'713.4 330 / 151015.3 14.812.512.2
2018-Jun-22 16:30N 35°18' W 121°58'613.0
2018-Jun-22 16:00N 35°23' W 122°02'2136.8
2018-Jun-22 16:00N 35°24' W 122°00'714.6 320 / 141015.5 14.812.613.2
2018-Jun-22 15:30N 35°29' W 122°07'612.8
2018-Jun-22 15:00N 35°34' W 122°11'2141.9
2018-Jun-22 15:00N 35°36' W 122°12'4 8.8 330 / 171015.2 14.412.713.7
2018-Jun-22 14:30N 35°39' W 122°15'713.2
2018-Jun-22 14:00N 35°45' W 122°20'3209.8
2018-Jun-22 14:00N 35°48' W 122°18'511.2 330 / 171014.9 14.112.413.8
2018-Jun-22 13:30N 35°50' W 122°24'612.7
2018-Jun-22 13:00N 35°56' W 122°28'2171.1
2018-Jun-22 13:00N 35°54' W 122°30'713.6 320 / 161014.8 14.011.714.0
2018-Jun-22 12:30N 36°00' W 122°32'510.3
2018-Jun-22 12:00N 36°05' W 122°35'188.8
2018-Jun-22 12:00N 36°06' W 122°36'4 8.3 300 / 101014.8 14.011.614.1
2018-Jun-22 11:30N 36°09' W 122°39'612.9
2018-Jun-22 11:00N 36°15' W 122°43'3181.7
2018-Jun-22 11:00N 36°12' W 122°42'1019.5 330 / 171015.8 14.012.514.2
2018-Jun-22 10:30N 36°20' W 122°48'713.7
2018-Jun-22 10:01N 36°26' W 122°52'2139.3
2018-Jun-22 10:00N 36°24' W 122°54'816.6 330 / 161016.2 14.112.513.6
2018-Jun-22 09:30N 36°32' W 122°57'713.2
2018-Jun-22 09:00N 36°37' W 123°01'2105.6
2018-Jun-22 09:00N 36°36' W 123°00'817.3 330 / 161016.2 14.012.113.9
2018-Jun-22 08:30N 36°43' W 123°06'713.4
2018-Jun-22 08:00N 36°49' W 123°10'181.0
2018-Jun-22 08:00N 36°48' W 123°12'713.8 330 / 161016.6 14.112.813.9
2018-Jun-22 07:30N 36°54' W 123°15'713.4
2018-Jun-22 07:00N 36°60' W 123°20'1200.3
2018-Jun-22 07:00N 37°00' W 123°18'715.5 320 / 171017.0 13.512.713.8
2018-Jun-22 06:30N 37°06' W 123°24'713.3
2018-Jun-22 06:00N 37°11' W 123°29'1398.4
2018-Jun-22 06:00N 37°12' W 123°30'511.2 330 / 161017.1 13.512.713.1
2018-Jun-22 05:30N 37°17' W 123°33'713.4
2018-Jun-22 05:00N 37°22' W 123°38'2254.4
2018-Jun-22 05:00N 37°24' W 123°36'713.0 330 / 161017.2 13.512.512.4
2018-Jun-22 04:29N 37°28' W 123°43'612.4
2018-Jun-22 04:00N 37°33' W 123°47'3197.4
2018-Jun-22 04:00N 37°36' W 123°48'3 6.6 330 / 181016.6 14.012.412.7
2018-Jun-22 03:30N 37°39' W 123°50'510.1
2018-Jun-22 03:01N 37°43' W 123°52'2119.8
2018-Jun-22 03:00N 37°42' W 123°54'918.3 330 / 221016.9 13.812.613.3
2018-Jun-22 02:30N 37°51' W 123°55'815.7
2018-Jun-22 02:00N 37°58' W 123°58'2129.3
2018-Jun-22 02:00N 38°00' W 124°00'612.0 340 / 201017.2 14.312.613.6
2018-Jun-22 01:30N 38°06' W 124°02'815.3
2018-Jun-22 01:00N 38°13' W 124°05'1101.8
2018-Jun-22 01:00N 38°12' W 124°06'817.2 340 / 201017.6 14.212.713.5
2018-Jun-22 00:30N 38°20' W 124°08'815.3
2018-Jun-22 00:00N 38°28' W 124°11'3196.1
2018-Jun-22 00:00N 38°30' W 124°12'610.7 340 / 201018.2 14.612.914.6
2018-Jun-21 23:27N 38°35' W 124°14'715.5
2018-Jun-21 23:00N 38°42' W 124°18'1312.9 340 / 171019.0 14.612.813.8
2018-Jun-21 22:00N 38°54' W 124°24'1918.6 340 / 171019.0 14.812.713.2
2018-Jun-21 21:00N 39°12' W 124°30'1312.9 330 / 191019.2 14.512.413.7
2018-Jun-21 20:00N 39°24' W 124°36'415.2 350 / 181019.8 14.512.114.6
2018-Jun-21 19:46N 39°27' W 124°37'912.3
2018-Jun-21 19:00N 39°36' W 124°42'1218.6 350 / 201019.6 14.611.814.0
2018-Jun-21 18:20N 39°48' W 124°46'618.5
2018-Jun-21 18:00N 39°54' W 124°48'0 5.5 350 / 181019.9 14.011.314.2
2018-Jun-21 17:56N 39°54' W 124°48'1313.9
2018-Jun-21 17:00N 40°06' W 124°54'1115.3 360 / 211020.6 13.711.413.9
2018-Jun-21 16:59N 40°07' W 124°54'814.0
2018-Jun-21 16:26N 40°14' W 124°57'613.3
2018-Jun-21 16:00N 40°20' W 124°59'2179.5
2018-Jun-21 16:00N 40°18' W 125°00'26212.9 1020.8 13.511.313.7
2018-Jun-20 19:44N 44°38' W 125°47'2 4.5
2018-Jun-20 19:21N 44°39' W 125°47'615.6
2018-Jun-20 19:00N 44°45' W 125°48'812.8
2018-Jun-20 18:24N 44°53' W 125°50'714.1
2018-Jun-20 17:56N 44°59' W 125°52'814.9
2018-Jun-20 17:24N 45°07' W 125°55'612.9
2018-Jun-20 16:58N 45°12' W 125°56'814.0
2018-Jun-20 16:24N 45°20' W 125°58'714.2
2018-Jun-20 15:56N 45°27' W 125°59'714.0
2018-Jun-20 15:23N 45°34' W 126°01'614.3
2018-Jun-20 14:59N 45°40' W 126°02'713.7
2018-Jun-20 14:29N 45°47' W 126°04'714.0
2018-Jun-20 13:59N 45°54' W 126°05'613.3
2018-Jun-20 13:30N 45°60' W 126°06'914.2
2018-Jun-20 12:54N 46°08' W 126°08'612.8
2018-Jun-20 12:24N 46°15' W 126°10'613.5
2018-Jun-20 11:59N 46°20' W 126°11'713.5
2018-Jun-20 11:28N 46°27' W 126°12'1013.7
2018-Jun-20 10:46N 46°36' W 126°14'312.8
2018-Jun-20 10:30N 46°40' W 126°15'713.3
2018-Jun-20 10:00N 46°46' W 126°17'713.4
2018-Jun-20 09:30N 46°53' W 126°18'713.2
2018-Jun-20 09:00N 46°60' W 126°20'713.7
2018-Jun-20 08:30N 47°06' W 126°21'713.8
2018-Jun-20 08:00N 47°13' W 126°23'713.7
2018-Jun-20 07:30N 47°20' W 126°24'713.5
2018-Jun-20 06:58N 47°27' W 126°26'913.2
2018-Jun-20 06:17N 47°36' W 126°28'412.7
2018-Jun-20 06:00N 47°40' W 126°28'611.7
2018-Jun-20 05:31N 47°45' W 126°30'611.1
2018-Jun-20 04:58N 47°51' W 126°31'613.8
2018-Jun-20 04:30N 47°58' W 126°33'510.1
2018-Jun-20 04:01N 48°02' W 126°34'0 0.7
2018-Jun-20 03:19N 48°03' W 126°34'0 0.2
2018-Jun-20 03:00N 48°03' W 126°34'0 0.0
2018-Jun-20 02:30N 48°03' W 126°34'1 2.4
2018-Jun-20 02:00N 48°03' W 126°32'3 5.6
2018-Jun-20 01:30N 48°03' W 126°36'2 4.1
2018-Jun-20 00:55N 48°03' W 126°33'6 8.8
2018-Jun-20 00:15N 48°04' W 126°24'2 6.5
2018-Jun-19 23:52N 48°02' W 126°27'3 7.0
2018-Jun-19 23:29N 48°05' W 126°25'2 4.8
2018-Jun-19 23:00N 48°03' W 126°28'0 0.8
2018-Jun-19 22:30N 48°03' W 126°27'3 5.7
2018-Jun-19 22:01N 48°05' W 126°24'5 6.2
2018-Jun-19 21:09N 48°03' W 126°31'2 7.5
2018-Jun-19 20:55N 48°03' W 126°34'2 3.8
2018-Jun-19 20:22N 48°03' W 126°37'3 6.9
2018-Jun-19 19:55N 48°03' W 126°33'4 9.2
2018-Jun-19 19:30N 48°04' W 126°27'1 2.1
2018-Jun-19 19:00N 48°03' W 126°26'2 3.3
2018-Jun-19 18:29N 48°04' W 126°27'0 0.3
2018-Jun-19 18:00N 48°04' W 126°27'1 2.5
2018-Jun-19 17:30N 48°05' W 126°26'2 4.1
2018-Jun-19 17:00N 48°03' W 126°28'1 1.7
2018-Jun-19 16:17N 48°04' W 126°26'0 1.5
2018-Jun-19 16:00N 48°04' W 126°27'1 1.2
2018-Jun-19 15:16N 48°03' W 126°28'1 3.3
2018-Jun-19 14:59N 48°04' W 126°27'14 7.9
2018-Jun-19 13:17N 48°09' W 126°08'412.4
2018-Jun-19 13:00N 48°10' W 126°03'1112.5
2018-Jun-19 12:06N 48°14' W 125°47'212.6
2018-Jun-19 11:59N 48°15' W 125°45'612.3
2018-Jun-19 11:28N 48°17' W 125°36'1912.8
2018-Jun-19 09:57N 48°25' W 125°09'613.1
2018-Jun-19 09:30N 48°29' W 125°03'612.3
2018-Jun-19 09:00N 48°31' W 124°54'713.8
2018-Jun-19 08:30N 48°31' W 124°44'713.8
2018-Jun-19 08:01N 48°28' W 124°35'713.8
2018-Jun-19 07:30N 48°25' W 124°25'713.7
2018-Jun-19 07:00N 48°23' W 124°16'713.3
2018-Jun-19 06:30N 48°20' W 124°07'612.8
2018-Jun-19 06:00N 48°18' W 123°58'812.6
2018-Jun-19 05:22N 48°16' W 123°46'512.0
2018-Jun-19 04:58N 48°16' W 123°38'3010.8
2018-Jun-19 02:11N 48°12' W 122°54'212.2
2018-Jun-19 01:59N 48°12' W 122°50'1 1.3
2018-Jun-19 01:30N 48°12' W 122°49'5 9.5
2018-Jun-19 00:58N 48°09' W 122°43'610.2
2018-Jun-19 00:24N 48°04' W 122°38'511.7
2018-Jun-19 00:00N 47°60' W 122°36'611.9
2018-Jun-18 23:30N 47°56' W 122°29'612.9
2018-Jun-18 23:00N 47°50' W 122°27'612.9
2018-Jun-18 22:30N 47°43' W 122°26'  
2018-Jun-14 19:18N 47°35' W 122°21'0 0.0
2018-Jun-14 19:00N 47°35' W 122°21'0 0.0
2018-Jun-14 18:30N 47°35' W 122°21'0 0.0
2018-Jun-14 18:00N 47°35' W 122°21'0 0.0
2018-Jun-14 17:30N 47°35' W 122°21'0 0.0
2018-Jun-14 17:00N 47°35' W 122°21'0 0.0
2018-Jun-14 16:30N 47°35' W 122°21'0 0.0
2018-Jun-14 16:00N 47°35' W 122°21'0 0.0
2018-Jun-14 15:30N 47°35' W 122°21'0 0.0
2018-Jun-14 15:00N 47°35' W 122°21'0 0.0
2018-Jun-14 14:30N 47°35' W 122°21'0 0.0
2018-Jun-14 14:00N 47°35' W 122°21'0 0.0
2018-Jun-14 13:30N 47°35' W 122°21'0 0.0
2018-Jun-14 13:00N 47°35' W 122°21'0 0.0
2018-Jun-14 12:27N 47°35' W 122°21'0 0.0
2018-Jun-14 11:59N 47°35' W 122°21'0 0.0
2018-Jun-14 11:23N 47°35' W 122°21'0 0.0
2018-Jun-14 10:59N 47°35' W 122°21'0 0.0
2018-Jun-14 10:29N 47°35' W 122°21'0 0.0
2018-Jun-14 09:59N 47°35' W 122°21'0 0.0
2018-Jun-14 09:29N 47°35' W 122°21'0 0.0
2018-Jun-14 08:59N 47°35' W 122°21'0 0.0
2018-Jun-14 08:29N 47°35' W 122°21'0 0.0
2018-Jun-14 07:59N 47°35' W 122°21'0 0.0
2018-Jun-14 07:29N 47°35' W 122°21'0 0.0
2018-Jun-14 07:00N 47°35' W 122°21'0 0.0
2018-Jun-14 06:30N 47°35' W 122°21'0 0.0
2018-Jun-14 06:00N 47°35' W 122°21'0 0.0
2018-Jun-14 05:30N 47°35' W 122°21'0 0.0
2018-Jun-14 05:00N 47°35' W 122°21'0 0.0
2018-Jun-14 04:30N 47°35' W 122°21'0 0.0
2018-Jun-14 04:00N 47°35' W 122°21'0 0.0
2018-Jun-14 03:30N 47°35' W 122°21'0 0.0
2018-Jun-14 02:57N 47°35' W 122°21'0 0.0
2018-Jun-14 02:27N 47°35' W 122°21'0 0.0
2018-Jun-14 02:00N 47°35' W 122°21'0 0.0
2018-Jun-14 01:30N 47°35' W 122°21'0 0.0
2018-Jun-14 01:00N 47°35' W 122°21'0 0.0
2018-Jun-14 00:29N 47°35' W 122°21'0 0.0
2018-Jun-13 23:59N 47°35' W 122°21'0 0.0
2018-Jun-13 23:29N 47°35' W 122°21'0 0.0
2018-Jun-13 22:59N 47°35' W 122°21'0 0.0
2018-Jun-13 22:29N 47°35' W 122°21'0 0.0
2018-Jun-13 21:59N 47°35' W 122°21'0 0.0
2018-Jun-13 21:29N 47°35' W 122°21'0 0.0
2018-Jun-13 20:59N 47°35' W 122°21'0 0.0
2018-Jun-13 20:29N 47°35' W 122°21'0 0.0
2018-Jun-13 20:00N 47°35' W 122°21'0 0.0
2018-Jun-13 19:30N 47°35' W 122°21'0 0.0
2018-Jun-13 19:00N 47°35' W 122°21'0 0.0
2018-Jun-13 18:30N 47°35' W 122°21'0 0.0
2018-Jun-13 18:00N 47°35' W 122°21'0 0.0
2018-Jun-13 17:30N 47°35' W 122°21'0 0.0
2018-Jun-13 17:00N 47°35' W 122°21'0 0.0
2018-Jun-13 16:30N 47°35' W 122°21'0 0.0
2018-Jun-13 16:00N 47°35' W 122°21'0 0.0
2018-Jun-13 15:30N 47°35' W 122°21'0 0.0
2018-Jun-13 14:59N 47°35' W 122°21'0 0.0
2018-Jun-13 14:29N 47°35' W 122°21'0 0.0
2018-Jun-13 13:59N 47°35' W 122°21'0 0.0
2018-Jun-13 13:29N 47°35' W 122°21'0 0.0
2018-Jun-13 12:59N 47°35' W 122°21'0 0.0
2018-Jun-13 12:30N 47°35' W 122°21'0 0.0
2018-Jun-13 12:00N 47°35' W 122°21'0 0.0
2018-Jun-13 11:30N 47°35' W 122°21'0 0.0
2018-Jun-13 11:00N 47°35' W 122°21'0 0.0
2018-Jun-13 10:30N 47°35' W 122°21'0 0.0
2018-Jun-13 10:00N 47°35' W 122°21'0 0.0
2018-Jun-13 09:30N 47°35' W 122°21'0 0.0
2018-Jun-13 09:00N 47°35' W 122°21'0 0.0
2018-Jun-13 08:30N 47°35' W 122°21'0 0.0
2018-Jun-13 08:00N 47°35' W 122°21'0 0.0
2018-Jun-13 07:30N 47°35' W 122°21'0 0.0
2018-Jun-13 06:59N 47°35' W 122°21'0 0.0
2018-Jun-13 06:29N 47°35' W 122°21'0 0.0
2018-Jun-13 05:59N 47°35' W 122°21'0 0.0
2018-Jun-13 05:29N 47°35' W 122°21'0 0.0
2018-Jun-13 04:59N 47°35' W 122°21'0 0.0
2018-Jun-13 04:30N 47°35' W 122°21'0 0.0
2018-Jun-13 04:00N 47°35' W 122°21'0 0.0
2018-Jun-13 03:30N 47°35' W 122°21'0 0.0
2018-Jun-13 03:00N 47°35' W 122°21'0 0.0
2018-Jun-13 02:30N 47°35' W 122°21'0 0.0
2018-Jun-13 02:00N 47°35' W 122°21'0 0.0
2018-Jun-13 01:30N 47°35' W 122°21'0 0.0
2018-Jun-13 01:00N 47°35' W 122°21'0 0.0
2018-Jun-13 00:30N 47°35' W 122°21'0 0.0
2018-Jun-13 00:00N 47°35' W 122°21'0 0.0
2018-Jun-12 23:30N 47°35' W 122°21'0 0.0
2018-Jun-12 22:57N 47°35' W 122°21'0 0.0
2018-Jun-12 22:29N 47°35' W 122°21'0 0.0
2018-Jun-12 21:59N 47°35' W 122°21'0 0.0
2018-Jun-12 21:29N 47°35' W 122°21'0 0.0
2018-Jun-12 20:59N 47°35' W 122°21'0 0.0
2018-Jun-12 20:29N 47°35' W 122°21'0 0.0
2018-Jun-12 19:59N 47°35' W 122°21'0 0.0
2018-Jun-12 19:29N 47°35' W 122°21'0 0.0
2018-Jun-12 18:59N 47°35' W 122°21'  
Track history (hours):
 
Tides and Currents Weather Stations Pressure Air Temp Water Temp Dewpoint Dewpoint Depression Visibility Wind Speed Wind Dir Waves Ship Positions

Oceanographic research ship USCGC Healy (USA)

Detailed information on ship capabilities available from University of Delaware's Ocean Information Center and ARCUS's ALIAS (Arctic Logistics Information and Support) project.

Last reported at 2018-Jun-22 18:30 UTC. Time now 2018-Jun-22 18:36 UTC.
Position N 34°56' W 121°41'.

Type: Military. MMSI: 303902000.

Date/timePositionNaut miles runAvg speedWind from/ knotsBaromVisibWave heightAir tempDewpointWater temp
2018-Jun-22 18:30N 34°56' W 121°41'612.7
2018-Jun-22 18:00N 35°01' W 121°45'3167.1
2018-Jun-22 18:00N 35°00' W 121°48'713.9 330 / 151015.4 15.212.213.2
2018-Jun-22 17:30N 35°07' W 121°49'713.0
2018-Jun-22 17:00N 35°12' W 121°54'014.5
2018-Jun-22 17:00N 35°12' W 121°54'713.4 330 / 151015.3 14.812.512.2
2018-Jun-22 16:30N 35°18' W 121°58'613.0
2018-Jun-22 16:00N 35°23' W 122°02'2136.8
2018-Jun-22 16:00N 35°24' W 122°00'714.6 320 / 141015.5 14.812.613.2
2018-Jun-22 15:30N 35°29' W 122°07'612.8
2018-Jun-22 15:00N 35°34' W 122°11'2141.9
2018-Jun-22 15:00N 35°36' W 122°12'4 8.8 330 / 171015.2 14.412.713.7
2018-Jun-22 14:30N 35°39' W 122°15'713.2
2018-Jun-22 14:00N 35°45' W 122°20'3209.8
2018-Jun-22 14:00N 35°48' W 122°18'511.2 330 / 171014.9 14.112.413.8
2018-Jun-22 13:30N 35°50' W 122°24'612.7
2018-Jun-22 13:00N 35°56' W 122°28'2171.1
2018-Jun-22 13:00N 35°54' W 122°30'713.6 320 / 161014.8 14.011.714.0
2018-Jun-22 12:30N 36°00' W 122°32'510.3
2018-Jun-22 12:00N 36°05' W 122°35'188.8
2018-Jun-22 12:00N 36°06' W 122°36'4 8.3 300 / 101014.8 14.011.614.1
2018-Jun-22 11:30N 36°09' W 122°39'612.9
2018-Jun-22 11:00N 36°15' W 122°43'3181.7
2018-Jun-22 11:00N 36°12' W 122°42'1019.5 330 / 171015.8 14.012.514.2
2018-Jun-22 10:30N 36°20' W 122°48'713.7
2018-Jun-22 10:01N 36°26' W 122°52'2139.3
2018-Jun-22 10:00N 36°24' W 122°54'816.6 330 / 161016.2 14.112.513.6
2018-Jun-22 09:30N 36°32' W 122°57'713.2
2018-Jun-22 09:00N 36°37' W 123°01'2105.6
2018-Jun-22 09:00N 36°36' W 123°00'817.3 330 / 161016.2 14.012.113.9
2018-Jun-22 08:30N 36°43' W 123°06'713.4
2018-Jun-22 08:00N 36°49' W 123°10'181.0
2018-Jun-22 08:00N 36°48' W 123°12'713.8 330 / 161016.6 14.112.813.9
2018-Jun-22 07:30N 36°54' W 123°15'713.4
2018-Jun-22 07:00N 36°60' W 123°20'1200.3
2018-Jun-22 07:00N 37°00' W 123°18'715.5 320 / 171017.0 13.512.713.8
2018-Jun-22 06:30N 37°06' W 123°24'713.3
2018-Jun-22 06:00N 37°11' W 123°29'1398.4
2018-Jun-22 06:00N 37°12' W 123°30'511.2 330 / 161017.1 13.512.713.1
2018-Jun-22 05:30N 37°17' W 123°33'713.4
2018-Jun-22 05:00N 37°22' W 123°38'2254.4
2018-Jun-22 05:00N 37°24' W 123°36'713.0 330 / 161017.2 13.512.512.4
2018-Jun-22 04:29N 37°28' W 123°43'612.4
2018-Jun-22 04:00N 37°33' W 123°47'3197.4
2018-Jun-22 04:00N 37°36' W 123°48'3 6.6 330 / 181016.6 14.012.412.7
2018-Jun-22 03:30N 37°39' W 123°50'510.1
2018-Jun-22 03:01N 37°43' W 123°52'2119.8
2018-Jun-22 03:00N 37°42' W 123°54'918.3 330 / 221016.9 13.812.613.3
2018-Jun-22 02:30N 37°51' W 123°55'815.7
2018-Jun-22 02:00N 37°58' W 123°58'2129.3
2018-Jun-22 02:00N 38°00' W 124°00'612.0 340 / 201017.2 14.312.613.6
2018-Jun-22 01:30N 38°06' W 124°02'815.3
2018-Jun-22 01:00N 38°13' W 124°05'1101.8
2018-Jun-22 01:00N 38°12' W 124°06'817.2 340 / 201017.6 14.212.713.5
2018-Jun-22 00:30N 38°20' W 124°08'815.3
2018-Jun-22 00:00N 38°28' W 124°11'3196.1
2018-Jun-22 00:00N 38°30' W 124°12'610.7 340 / 201018.2 14.612.914.6
2018-Jun-21 23:27N 38°35' W 124°14'715.5
2018-Jun-21 23:00N 38°42' W 124°18'1312.9 340 / 171019.0 14.612.813.8
2018-Jun-21 22:00N 38°54' W 124°24'1918.6 340 / 171019.0 14.812.713.2
2018-Jun-21 21:00N 39°12' W 124°30'1312.9 330 / 191019.2 14.512.413.7
2018-Jun-21 20:00N 39°24' W 124°36'415.2 350 / 181019.8 14.512.114.6
2018-Jun-21 19:46N 39°27' W 124°37'912.3
2018-Jun-21 19:00N 39°36' W 124°42'1218.6 350 / 201019.6 14.611.814.0
2018-Jun-21 18:20N 39°48' W 124°46'618.5
2018-Jun-21 18:00N 39°54' W 124°48'0 5.5 350 / 181019.9 14.011.314.2
2018-Jun-21 17:56N 39°54' W 124°48'1313.9
2018-Jun-21 17:00N 40°06' W 124°54'1115.3 360 / 211020.6 13.711.413.9
2018-Jun-21 16:59N 40°07' W 124°54'814.0
2018-Jun-21 16:26N 40°14' W 124°57'613.3
2018-Jun-21 16:00N 40°20' W 124°59'2179.5
2018-Jun-21 16:00N 40°18' W 125°00'26212.9 1020.8 13.511.313.7
2018-Jun-20 19:44N 44°38' W 125°47'2 4.5
2018-Jun-20 19:21N 44°39' W 125°47'615.6
2018-Jun-20 19:00N 44°45' W 125°48'812.8
2018-Jun-20 18:24N 44°53' W 125°50'714.1
2018-Jun-20 17:56N 44°59' W 125°52'814.9
2018-Jun-20 17:24N 45°07' W 125°55'612.9
2018-Jun-20 16:58N 45°12' W 125°56'814.0
2018-Jun-20 16:24N 45°20' W 125°58'714.2
2018-Jun-20 15:56N 45°27' W 125°59'714.0
2018-Jun-20 15:23N 45°34' W 126°01'614.3
2018-Jun-20 14:59N 45°40' W 126°02'713.7
2018-Jun-20 14:29N 45°47' W 126°04'714.0
2018-Jun-20 13:59N 45°54' W 126°05'613.3
2018-Jun-20 13:30N 45°60' W 126°06'914.2
2018-Jun-20 12:54N 46°08' W 126°08'612.8
2018-Jun-20 12:24N 46°15' W 126°10'613.5
2018-Jun-20 11:59N 46°20' W 126°11'713.5
2018-Jun-20 11:28N 46°27' W 126°12'1013.7
2018-Jun-20 10:46N 46°36' W 126°14'312.8
2018-Jun-20 10:30N 46°40' W 126°15'713.3
2018-Jun-20 10:00N 46°46' W 126°17'713.4
2018-Jun-20 09:30N 46°53' W 126°18'713.2
2018-Jun-20 09:00N 46°60' W 126°20'713.7
2018-Jun-20 08:30N 47°06' W 126°21'713.8
2018-Jun-20 08:00N 47°13' W 126°23'713.7
2018-Jun-20 07:30N 47°20' W 126°24'713.5
2018-Jun-20 06:58N 47°27' W 126°26'913.2
2018-Jun-20 06:17N 47°36' W 126°28'412.7
2018-Jun-20 06:00N 47°40' W 126°28'611.7
2018-Jun-20 05:31N 47°45' W 126°30'611.1
2018-Jun-20 04:58N 47°51' W 126°31'613.8
2018-Jun-20 04:30N 47°58' W 126°33'510.1
2018-Jun-20 04:01N 48°02' W 126°34'0 0.7
2018-Jun-20 03:19N 48°03' W 126°34'0 0.2
2018-Jun-20 03:00N 48°03' W 126°34'0 0.0
2018-Jun-20 02:30N 48°03' W 126°34'1 2.4
2018-Jun-20 02:00N 48°03' W 126°32'3 5.6
2018-Jun-20 01:30N 48°03' W 126°36'2 4.1
2018-Jun-20 00:55N 48°03' W 126°33'6 8.8
2018-Jun-20 00:15N 48°04' W 126°24'2 6.5
2018-Jun-19 23:52N 48°02' W 126°27'3 7.0
2018-Jun-19 23:29N 48°05' W 126°25'2 4.8
2018-Jun-19 23:00N 48°03' W 126°28'0 0.8
2018-Jun-19 22:30N 48°03' W 126°27'3 5.7
2018-Jun-19 22:01N 48°05' W 126°24'5 6.2
2018-Jun-19 21:09N 48°03' W 126°31'2 7.5
2018-Jun-19 20:55N 48°03' W 126°34'2 3.8
2018-Jun-19 20:22N 48°03' W 126°37'3 6.9
2018-Jun-19 19:55N 48°03' W 126°33'4 9.2
2018-Jun-19 19:30N 48°04' W 126°27'1 2.1
2018-Jun-19 19:00N 48°03' W 126°26'2 3.3
2018-Jun-19 18:29N 48°04' W 126°27'0 0.3
2018-Jun-19 18:00N 48°04' W 126°27'1 2.5
2018-Jun-19 17:30N 48°05' W 126°26'2 4.1
2018-Jun-19 17:00N 48°03' W 126°28'1 1.7
2018-Jun-19 16:17N 48°04' W 126°26'0 1.5
2018-Jun-19 16:00N 48°04' W 126°27'1 1.2
2018-Jun-19 15:16N 48°03' W 126°28'1 3.3
2018-Jun-19 14:59N 48°04' W 126°27'14 7.9
2018-Jun-19 13:17N 48°09' W 126°08'412.4
2018-Jun-19 13:00N 48°10' W 126°03'1112.5
2018-Jun-19 12:06N 48°14' W 125°47'212.6
2018-Jun-19 11:59N 48°15' W 125°45'612.3
2018-Jun-19 11:28N 48°17' W 125°36'1912.8
2018-Jun-19 09:57N 48°25' W 125°09'613.1
2018-Jun-19 09:30N 48°29' W 125°03'612.3
2018-Jun-19 09:00N 48°31' W 124°54'713.8
2018-Jun-19 08:30N 48°31' W 124°44'713.8
2018-Jun-19 08:01N 48°28' W 124°35'713.8
2018-Jun-19 07:30N 48°25' W 124°25'713.7
2018-Jun-19 07:00N 48°23' W 124°16'713.3
2018-Jun-19 06:30N 48°20' W 124°07'612.8
2018-Jun-19 06:00N 48°18' W 123°58'812.6
2018-Jun-19 05:22N 48°16' W 123°46'512.0
2018-Jun-19 04:58N 48°16' W 123°38'3010.8
2018-Jun-19 02:11N 48°12' W 122°54'212.2
2018-Jun-19 01:59N 48°12' W 122°50'1 1.3
2018-Jun-19 01:30N 48°12' W 122°49'5 9.5
2018-Jun-19 00:58N 48°09' W 122°43'610.2
2018-Jun-19 00:24N 48°04' W 122°38'511.7
2018-Jun-19 00:00N 47°60' W 122°36'611.9
2018-Jun-18 23:30N 47°56' W 122°29'612.9
2018-Jun-18 23:00N 47°50' W 122°27'612.9
2018-Jun-18 22:30N 47°43' W 122°26'  
2018-Jun-14 19:18N 47°35' W 122°21'0 0.0
2018-Jun-14 19:00N 47°35' W 122°21'0 0.0
2018-Jun-14 18:30N 47°35' W 122°21'0 0.0
2018-Jun-14 18:00N 47°35' W 122°21'0 0.0
2018-Jun-14 17:30N 47°35' W 122°21'0 0.0
2018-Jun-14 17:00N 47°35' W 122°21'0 0.0
2018-Jun-14 16:30N 47°35' W 122°21'0 0.0
2018-Jun-14 16:00N 47°35' W 122°21'0 0.0
2018-Jun-14 15:30N 47°35' W 122°21'0 0.0
2018-Jun-14 15:00N 47°35' W 122°21'0 0.0
2018-Jun-14 14:30N 47°35' W 122°21'0 0.0
2018-Jun-14 14:00N 47°35' W 122°21'0 0.0
2018-Jun-14 13:30N 47°35' W 122°21'0 0.0
2018-Jun-14 13:00N 47°35' W 122°21'0 0.0
2018-Jun-14 12:27N 47°35' W 122°21'0 0.0
2018-Jun-14 11:59N 47°35' W 122°21'0 0.0
2018-Jun-14 11:23N 47°35' W 122°21'0 0.0
2018-Jun-14 10:59N 47°35' W 122°21'0 0.0
2018-Jun-14 10:29N 47°35' W 122°21'0 0.0
2018-Jun-14 09:59N 47°35' W 122°21'0 0.0
2018-Jun-14 09:29N 47°35' W 122°21'0 0.0
2018-Jun-14 08:59N 47°35' W 122°21'0 0.0
2018-Jun-14 08:29N 47°35' W 122°21'0 0.0
2018-Jun-14 07:59N 47°35' W 122°21'0 0.0
2018-Jun-14 07:29N 47°35' W 122°21'0 0.0
2018-Jun-14 07:00N 47°35' W 122°21'0 0.0
2018-Jun-14 06:30N 47°35' W 122°21'0 0.0
2018-Jun-14 06:00N 47°35' W 122°21'0 0.0
2018-Jun-14 05:30N 47°35' W 122°21'0 0.0
2018-Jun-14 05:00N 47°35' W 122°21'0 0.0
2018-Jun-14 04:30N 47°35' W 122°21'0 0.0
2018-Jun-14 04:00N 47°35' W 122°21'0 0.0
2018-Jun-14 03:30N 47°35' W 122°21'0 0.0
2018-Jun-14 02:57N 47°35' W 122°21'0 0.0
2018-Jun-14 02:27N 47°35' W 122°21'0 0.0
2018-Jun-14 02:00N 47°35' W 122°21'0 0.0
2018-Jun-14 01:30N 47°35' W 122°21'0 0.0
2018-Jun-14 01:00N 47°35' W 122°21'0 0.0
2018-Jun-14 00:29N 47°35' W 122°21'0 0.0
2018-Jun-13 23:59N 47°35' W 122°21'0 0.0
2018-Jun-13 23:29N 47°35' W 122°21'0 0.0
2018-Jun-13 22:59N 47°35' W 122°21'0 0.0
2018-Jun-13 22:29N 47°35' W 122°21'0 0.0
2018-Jun-13 21:59N 47°35' W 122°21'0 0.0
2018-Jun-13 21:29N 47°35' W 122°21'0 0.0
2018-Jun-13 20:59N 47°35' W 122°21'0 0.0
2018-Jun-13 20:29N 47°35' W 122°21'0 0.0
2018-Jun-13 20:00N 47°35' W 122°21'0 0.0
2018-Jun-13 19:30N 47°35' W 122°21'0 0.0
2018-Jun-13 19:00N 47°35' W 122°21'0 0.0
2018-Jun-13 18:30N 47°35' W 122°21'0 0.0
2018-Jun-13 18:00N 47°35' W 122°21'0 0.0
2018-Jun-13 17:30N 47°35' W 122°21'0 0.0
2018-Jun-13 17:00N 47°35' W 122°21'0 0.0
2018-Jun-13 16:30N 47°35' W 122°21'0 0.0
2018-Jun-13 16:00N 47°35' W 122°21'0 0.0
2018-Jun-13 15:30N 47°35' W 122°21'0 0.0
2018-Jun-13 14:59N 47°35' W 122°21'0 0.0
2018-Jun-13 14:29N 47°35' W 122°21'0 0.0
2018-Jun-13 13:59N 47°35' W 122°21'0 0.0
2018-Jun-13 13:29N 47°35' W 122°21'0 0.0
2018-Jun-13 12:59N 47°35' W 122°21'0 0.0
2018-Jun-13 12:30N 47°35' W 122°21'0 0.0
2018-Jun-13 12:00N 47°35' W 122°21'0 0.0
2018-Jun-13 11:30N 47°35' W 122°21'0 0.0
2018-Jun-13 11:00N 47°35' W 122°21'0 0.0
2018-Jun-13 10:30N 47°35' W 122°21'0 0.0
2018-Jun-13 10:00N 47°35' W 122°21'0 0.0
2018-Jun-13 09:30N 47°35' W 122°21'0 0.0
2018-Jun-13 09:00N 47°35' W 122°21'0 0.0
2018-Jun-13 08:30N 47°35' W 122°21'0 0.0
2018-Jun-13 08:00N 47°35' W 122°21'0 0.0
2018-Jun-13 07:30N 47°35' W 122°21'0 0.0
2018-Jun-13 06:59N 47°35' W 122°21'0 0.0
2018-Jun-13 06:29N 47°35' W 122°21'0 0.0
2018-Jun-13 05:59N 47°35' W 122°21'0 0.0
2018-Jun-13 05:29N 47°35' W 122°21'0 0.0
2018-Jun-13 04:59N 47°35' W 122°21'0 0.0
2018-Jun-13 04:30N 47°35' W 122°21'0 0.0
2018-Jun-13 04:00N 47°35' W 122°21'0 0.0
2018-Jun-13 03:30N 47°35' W 122°21'0 0.0
2018-Jun-13 03:00N 47°35' W 122°21'0 0.0
2018-Jun-13 02:30N 47°35' W 122°21'0 0.0
2018-Jun-13 02:00N 47°35' W 122°21'0 0.0
2018-Jun-13 01:30N 47°35' W 122°21'0 0.0
2018-Jun-13 01:00N 47°35' W 122°21'0 0.0
2018-Jun-13 00:30N 47°35' W 122°21'0 0.0
2018-Jun-13 00:00N 47°35' W 122°21'0 0.0
2018-Jun-12 23:30N 47°35' W 122°21'0 0.0
2018-Jun-12 22:57N 47°35' W 122°21'0 0.0
2018-Jun-12 22:29N 47°35' W 122°21'0 0.0
2018-Jun-12 21:59N 47°35' W 122°21'0 0.0
2018-Jun-12 21:29N 47°35' W 122°21'0 0.0
2018-Jun-12 20:59N 47°35' W 122°21'0 0.0
2018-Jun-12 20:29N 47°35' W 122°21'0 0.0
2018-Jun-12 19:59N 47°35' W 122°21'0 0.0
2018-Jun-12 19:29N 47°35' W 122°21'0 0.0
2018-Jun-12 18:59N 47°35' W 122°21'  

Dump ship's entire track history